createdAt,value
2019-03-06T00:05:57.284Z,13.17
2019-03-06T00:08:26.942Z,14.60
2019-03-06T00:10:56.550Z,15.00
2019-03-06T00:13:26.207Z,15.13
2019-03-06T00:15:55.790Z,14.63
2019-03-06T00:18:25.447Z,14.57
2019-03-06T00:20:55.080Z,14.43
2019-03-06T00:23:24.663Z,12.97
2019-03-06T00:25:54.318Z,11.07
2019-03-06T00:28:23.930Z,14.23
2019-03-06T00:30:53.570Z,15.00
2019-03-06T00:33:23.172Z,14.03
2019-03-06T00:35:53.320Z,13.17
2019-03-06T00:38:23.228Z,14.83
2019-03-06T00:41:23.867Z,14.43
2019-03-06T00:43:53.567Z,13.50
2019-03-06T00:46:23.231Z,14.43
2019-03-06T00:48:52.828Z,13.90
2019-03-06T00:51:22.436Z,14.53
2019-03-06T00:53:52.073Z,13.57
2019-03-06T00:56:21.669Z,14.37
2019-03-06T00:58:51.319Z,13.53
2019-03-06T01:01:20.918Z,12.20
2019-03-06T01:03:50.576Z,12.13
2019-03-06T01:06:20.175Z,12.47
2019-03-06T01:08:50.115Z,11.27
2019-03-06T01:11:19.707Z,11.37
2019-03-06T01:13:49.347Z,12.47
2019-03-06T01:16:18.968Z,10.77
2019-03-06T01:18:48.624Z,10.13
2019-03-06T01:21:18.239Z,11.17
2019-03-06T01:23:47.963Z,10.87
2019-03-06T01:26:17.552Z,10.97
2019-03-06T01:28:47.151Z,9.77
2019-03-06T01:31:16.805Z,10.73
2019-03-06T01:33:55.364Z,11.07
2019-03-06T01:36:59.033Z,11.13
2019-03-06T01:39:50.466Z,10.23
2019-03-06T01:42:31.687Z,9.67
2019-03-06T01:45:04.319Z,9.73
2019-03-06T01:47:33.969Z,9.43
2019-03-06T01:50:03.692Z,10.27
2019-03-06T01:52:33.314Z,10.67
2019-03-06T01:55:03.230Z,9.37
2019-03-06T01:57:32.893Z,10.73
2019-03-06T02:00:02.474Z,12.33
2019-03-06T02:02:32.079Z,10.53
2019-03-06T02:05:01.725Z,9.67
2019-03-06T02:07:31.512Z,10.30
2019-03-06T02:10:02.853Z,10.33
2019-03-06T02:12:32.462Z,10.70
2019-03-06T02:15:02.099Z,9.83
2019-03-06T02:17:31.699Z,10.27
2019-03-06T02:20:01.294Z,10.90
2019-03-06T02:22:31.036Z,10.90
2019-03-06T02:25:00.650Z,10.10
2019-03-06T02:27:30.308Z,10.27
2019-03-06T02:30:00.467Z,11.13
2019-03-06T02:32:30.271Z,10.53
2019-03-06T02:34:59.889Z,9.80
2019-03-06T02:37:29.946Z,10.93
2019-03-06T02:39:59.544Z,9.93
2019-03-06T02:42:29.579Z,9.00
2019-03-06T02:44:59.241Z,9.93
2019-03-06T02:47:28.851Z,9.07
2019-03-06T02:49:58.501Z,9.30
2019-03-06T02:52:28.097Z,9.83
2019-03-06T02:54:58.065Z,9.93
2019-03-06T02:57:27.659Z,9.87
2019-03-06T03:00:18.634Z,9.80
2019-03-06T03:02:59.871Z,10.67
2019-03-06T03:05:33.623Z,10.33
2019-03-06T03:08:03.953Z,11.10
2019-03-06T03:10:33.595Z,11.13
2019-03-06T03:13:03.602Z,10.73
2019-03-06T03:15:33.336Z,11.80
2019-03-06T03:18:02.942Z,10.40
2019-03-06T03:20:32.595Z,11.20
2019-03-06T03:23:02.299Z,9.70
2019-03-06T03:25:32.084Z,12.13
2019-03-06T03:28:01.711Z,10.33
2019-03-06T03:30:31.334Z,10.83
2019-03-06T03:33:00.944Z,9.37
2019-03-06T03:35:30.612Z,10.77
2019-03-06T03:38:00.440Z,10.10
2019-03-06T03:40:30.108Z,10.93
2019-03-06T03:42:59.752Z,9.83
2019-03-06T03:45:29.414Z,11.20
2019-03-06T03:47:59.052Z,10.80
2019-03-06T03:50:28.937Z,11.57
2019-03-06T03:52:58.592Z,10.63
2019-03-06T03:55:28.228Z,11.83
2019-03-06T03:57:57.888Z,10.67
2019-03-06T04:00:27.613Z,10.80
2019-03-06T04:02:57.393Z,10.73
2019-03-06T04:05:27.061Z,10.93
2019-03-06T04:07:56.735Z,10.50
2019-03-06T04:10:26.364Z,9.47
2019-03-06T04:12:56.042Z,10.70
2019-03-06T04:15:25.768Z,10.63
2019-03-06T04:17:55.468Z,11.13
2019-03-06T04:20:25.202Z,10.77
2019-03-06T04:22:54.885Z,11.60
2019-03-06T04:25:24.688Z,11.10
2019-03-06T04:27:54.465Z,11.23
2019-03-06T04:30:24.098Z,10.63
2019-03-06T04:32:53.779Z,11.37
2019-03-06T04:35:23.395Z,11.60
2019-03-06T04:37:53.088Z,11.83
2019-03-06T04:40:22.757Z,13.00
2019-03-06T04:42:52.455Z,11.73
2019-03-06T04:45:22.061Z,11.77
2019-03-06T04:47:51.756Z,12.00
2019-03-06T04:50:21.406Z,13.17
2019-03-06T04:52:51.050Z,13.93
2019-03-06T04:55:20.700Z,13.73
2019-03-06T04:57:50.414Z,15.17
2019-03-06T05:00:20.185Z,13.63
2019-03-06T05:02:49.958Z,13.17
2019-03-06T05:05:19.710Z,13.60
2019-03-06T05:07:49.459Z,13.00
2019-03-06T05:10:20.154Z,12.90
2019-03-06T05:12:52.105Z,12.77
2019-03-06T05:15:21.899Z,13.27
2019-03-06T05:17:59.869Z,13.07
2019-03-06T05:20:32.939Z,12.73
2019-03-06T05:23:03.289Z,12.53
2019-03-06T05:25:35.987Z,11.90
2019-03-06T05:28:06.051Z,11.47
2019-03-06T05:30:38.350Z,10.53
2019-03-06T05:33:12.434Z,11.80
2019-03-06T05:36:13.907Z,12.17
2019-03-06T05:39:08.857Z,11.13
2019-03-06T05:41:38.929Z,11.93
2019-03-06T05:44:09.249Z,12.30
2019-03-06T05:46:40.539Z,12.43
2019-03-06T05:49:10.485Z,11.77
2019-03-06T05:51:40.175Z,12.80
2019-03-06T05:54:09.778Z,11.93
2019-03-06T05:56:39.456Z,12.70
2019-03-06T05:59:09.096Z,12.17
2019-03-06T06:01:38.736Z,13.80
2019-03-06T06:04:08.353Z,12.53
2019-03-06T06:06:38.105Z,12.00
2019-03-06T06:09:07.967Z,14.57
2019-03-06T06:11:37.647Z,12.30
2019-03-06T06:14:07.342Z,13.60
2019-03-06T06:16:37.029Z,13.93
2019-03-06T06:19:06.689Z,13.03
2019-03-06T06:21:50.767Z,14.93
2019-03-06T06:24:23.361Z,13.70
2019-03-06T06:26:52.994Z,13.73
2019-03-06T06:29:22.624Z,13.53
2019-03-06T06:31:52.319Z,14.40
2019-03-06T06:34:21.994Z,14.03
2019-03-06T06:36:51.643Z,15.30
2019-03-06T06:39:21.295Z,14.57
2019-03-06T06:41:50.953Z,14.80
2019-03-06T06:44:20.630Z,15.77
2019-03-06T06:46:50.221Z,15.27
2019-03-06T06:49:19.904Z,16.77
2019-03-06T06:52:11.336Z,15.77
2019-03-06T06:55:21.515Z,16.53
2019-03-06T06:58:38.294Z,16.07
2019-03-06T07:01:55.679Z,18.77
2019-03-06T07:04:45.011Z,16.30
2019-03-06T07:07:30.112Z,17.13
2019-03-06T07:10:24.839Z,19.47
2019-03-06T07:13:09.879Z,18.50
2019-03-06T07:16:13.571Z,19.00
2019-03-06T07:19:00.598Z,15.43
2019-03-06T07:21:53.739Z,16.63
2019-03-06T07:24:42.286Z,18.13
2019-03-06T07:27:26.855Z,18.73
2019-03-06T07:30:21.777Z,19.40
2019-03-06T07:33:08.049Z,18.50
2019-03-06T07:36:05.653Z,17.73
2019-03-06T07:38:35.302Z,17.33
2019-03-06T07:41:23.990Z,17.90
2019-03-06T07:44:11.266Z,16.37
2019-03-06T07:47:11.826Z,15.47
2019-03-06T07:49:51.441Z,16.60
2019-03-06T07:52:49.015Z,15.60
2019-03-06T07:55:40.726Z,14.07
2019-03-06T07:58:50.796Z,13.77
2019-03-06T08:01:20.664Z,12.97
2019-03-06T08:03:58.134Z,12.70
2019-03-06T08:06:28.279Z,11.60
2019-03-06T08:08:57.924Z,12.23
2019-03-06T08:11:45.552Z,10.43
2019-03-06T08:14:34.287Z,12.07
2019-03-06T08:17:25.850Z,11.70
2019-03-06T08:20:17.742Z,11.77
2019-03-06T08:22:58.441Z,10.30
2019-03-06T08:25:44.243Z,9.43
2019-03-06T08:28:14.542Z,9.90
2019-03-06T08:31:06.465Z,8.93
2019-03-06T08:33:36.055Z,9.50
2019-03-06T08:36:05.695Z,9.93
2019-03-06T08:38:35.342Z,8.73
2019-03-06T08:41:06.356Z,8.27
2019-03-06T08:43:36.299Z,7.67
2019-03-06T08:46:34.107Z,7.60
2019-03-06T08:49:26.140Z,7.83
2019-03-06T08:52:26.878Z,7.50
2019-03-06T08:55:20.808Z,7.07
2019-03-06T08:58:15.632Z,7.47
2019-03-06T09:01:06.959Z,7.27
2019-03-06T09:03:50.304Z,7.70
2019-03-06T09:06:37.696Z,7.30
2019-03-06T09:09:27.958Z,6.93
2019-03-06T09:12:35.208Z,7.17
2019-03-06T09:15:23.843Z,7.30
2019-03-06T09:18:11.422Z,7.77
2019-03-06T09:21:03.458Z,8.03
2019-03-06T09:23:49.367Z,7.90
2019-03-06T09:26:34.273Z,7.17
2019-03-06T09:29:18.336Z,6.57
2019-03-06T09:32:09.855Z,7.00
2019-03-06T09:34:47.970Z,7.00
2019-03-06T09:37:39.027Z,6.27
2019-03-06T09:40:24.558Z,7.37
2019-03-06T09:43:13.152Z,6.37
2019-03-06T09:45:55.104Z,6.00
2019-03-06T09:48:43.685Z,7.67
2019-03-06T09:51:26.324Z,6.40
2019-03-06T09:54:04.275Z,7.13
2019-03-06T09:57:05.219Z,6.70
2019-03-06T09:59:40.350Z,6.97
2019-03-06T10:02:28.909Z,8.07
2019-03-06T10:05:06.598Z,7.07
2019-03-06T10:08:00.864Z,6.73
2019-03-06T10:10:50.432Z,5.43
2019-03-06T10:13:41.701Z,5.17
2019-03-06T10:16:31.923Z,5.93
2019-03-06T10:19:11.843Z,5.50
2019-03-06T10:21:41.473Z,5.50
2019-03-06T10:24:11.154Z,5.87
2019-03-06T10:26:40.772Z,6.10
2019-03-06T10:29:10.509Z,5.53
2019-03-06T10:31:40.105Z,5.90
2019-03-06T10:34:09.852Z,4.90
2019-03-06T10:36:39.722Z,4.80
2019-03-06T10:39:12.707Z,4.63
2019-03-06T10:41:42.349Z,4.20
2019-03-06T10:44:12.340Z,4.23
2019-03-06T10:46:42.176Z,4.60
2019-03-06T10:49:11.937Z,4.37
2019-03-06T10:51:41.653Z,4.53
2019-03-06T10:54:11.417Z,4.77
2019-03-06T10:56:40.992Z,3.53
2019-03-06T10:59:10.782Z,3.87
2019-03-06T11:01:40.547Z,4.77
2019-03-06T11:04:29.260Z,4.00
2019-03-06T11:06:58.967Z,3.97
2019-03-06T11:09:29.076Z,3.13
2019-03-06T11:11:58.940Z,3.20
2019-03-06T11:14:29.036Z,3.83
2019-03-06T11:16:58.645Z,3.60
2019-03-06T11:19:28.700Z,3.50
2019-03-06T11:21:58.306Z,3.53
2019-03-06T11:24:28.058Z,2.83
2019-03-06T11:26:57.989Z,2.97
2019-03-06T11:29:27.871Z,3.60
2019-03-06T11:31:57.609Z,3.77
2019-03-06T11:34:27.214Z,3.57
2019-03-06T11:36:56.974Z,2.77
2019-03-06T11:39:26.580Z,3.00
2019-03-06T11:41:56.244Z,2.83
2019-03-06T11:44:26.020Z,3.30
2019-03-06T11:46:55.698Z,3.17
2019-03-06T11:49:25.369Z,3.03
2019-03-06T11:51:55.380Z,2.93
2019-03-06T11:54:25.045Z,2.70
2019-03-06T11:56:54.663Z,2.70
2019-03-06T11:59:24.327Z,2.90
2019-03-06T12:01:54.086Z,2.97
2019-03-06T12:04:24.345Z,3.00
2019-03-06T12:06:55.060Z,3.10
2019-03-06T12:09:29.909Z,3.03
2019-03-06T12:12:00.240Z,2.70
2019-03-06T12:14:29.936Z,2.60
2019-03-06T12:16:59.649Z,3.40
2019-03-06T12:19:29.278Z,2.70
2019-03-06T12:21:58.967Z,3.20
2019-03-06T12:24:28.627Z,3.10
2019-03-06T12:26:58.448Z,3.17
2019-03-06T12:29:28.040Z,3.53
2019-03-06T12:31:57.802Z,3.00
2019-03-06T12:34:27.701Z,3.37
2019-03-06T12:36:58.487Z,3.40
2019-03-06T12:39:28.354Z,3.47
2019-03-06T12:41:58.861Z,3.70
2019-03-06T12:44:28.803Z,3.63
2019-03-06T12:46:59.639Z,4.00
2019-03-06T12:49:30.159Z,3.93
2019-03-06T12:51:59.833Z,3.60
2019-03-06T12:54:29.437Z,3.30
2019-03-06T12:56:59.842Z,3.33
2019-03-06T12:59:31.178Z,3.40
2019-03-06T13:02:01.067Z,3.37
2019-03-06T13:04:30.779Z,3.57
2019-03-06T13:07:00.371Z,3.10
2019-03-06T13:09:30.032Z,3.27
2019-03-06T13:11:59.736Z,3.87
2019-03-06T13:14:30.505Z,3.03
2019-03-06T13:17:00.301Z,3.90
2019-03-06T13:19:30.065Z,3.80
2019-03-06T13:21:59.657Z,3.47
2019-03-06T13:24:29.318Z,3.47
2019-03-06T13:26:59.332Z,3.90
2019-03-06T13:29:28.985Z,3.70
2019-03-06T13:31:58.753Z,4.00
2019-03-06T13:34:31.769Z,4.47
2019-03-06T13:37:01.549Z,8.97
2019-03-06T13:39:31.212Z,6.93
2019-03-06T13:42:00.872Z,6.47
2019-03-06T13:44:30.519Z,5.47
2019-03-06T13:47:00.272Z,4.57
2019-03-06T13:49:30.046Z,3.77
2019-03-06T13:51:59.794Z,3.70
2019-03-06T13:54:29.795Z,3.70
2019-03-06T13:56:59.504Z,4.30
2019-03-06T13:59:29.112Z,3.50
2019-03-06T14:01:59.076Z,3.67
2019-03-06T14:04:28.709Z,4.03
2019-03-06T14:06:58.383Z,4.00
2019-03-06T14:09:28.278Z,3.97
2019-03-06T14:11:58.057Z,4.20
2019-03-06T14:14:27.811Z,4.07
2019-03-06T14:16:57.824Z,4.00
2019-03-06T14:19:27.639Z,3.97
2019-03-06T14:21:57.666Z,4.10
2019-03-06T14:24:27.534Z,4.13
2019-03-06T14:26:57.160Z,4.23
2019-03-06T14:29:26.855Z,4.50
2019-03-06T14:31:56.521Z,3.97
2019-03-06T14:34:26.343Z,4.37
2019-03-06T14:36:56.223Z,4.40
2019-03-06T14:39:28.350Z,4.30
2019-03-06T14:41:59.887Z,4.90
2019-03-06T14:44:29.547Z,4.10
2019-03-06T14:46:59.327Z,3.50
2019-03-06T14:49:30.413Z,4.07
2019-03-06T14:52:06.951Z,4.43
2019-03-06T14:54:31.944Z,4.90
2019-03-06T14:57:01.687Z,4.10
2019-03-06T14:59:31.278Z,4.47
2019-03-06T15:02:00.898Z,3.90
2019-03-06T15:04:30.660Z,4.17
2019-03-06T15:07:00.434Z,3.93
2019-03-06T15:09:30.135Z,4.50
2019-03-06T15:11:59.714Z,4.23
2019-03-06T15:14:35.838Z,4.00
2019-03-06T15:17:00.610Z,4.30
2019-03-06T15:19:30.263Z,3.47
2019-03-06T15:22:00.013Z,4.33
2019-03-06T15:24:29.970Z,4.37
2019-03-06T15:26:59.800Z,5.23
2019-03-06T15:29:29.782Z,4.80
2019-03-06T15:31:59.974Z,5.30
2019-03-06T15:34:29.842Z,4.80
2019-03-06T15:37:02.281Z,4.60
2019-03-06T15:39:42.415Z,4.87
2019-03-06T15:42:12.481Z,5.20
2019-03-06T15:44:42.065Z,4.73
2019-03-06T15:47:11.931Z,3.83
2019-03-06T15:53:30.017Z,5.53
2019-03-06T15:56:18.338Z,4.90
2019-03-06T15:58:48.374Z,5.03
2019-03-06T16:01:33.553Z,5.10
2019-03-06T16:04:07.549Z,5.53
2019-03-06T16:06:37.911Z,6.17
2019-03-06T16:09:10.539Z,6.73
2019-03-06T16:11:41.261Z,6.00
2019-03-06T16:14:17.027Z,6.07
2019-03-06T16:16:48.194Z,5.33
2019-03-06T16:19:18.419Z,5.43
2019-03-06T16:21:51.558Z,5.50
2019-03-06T16:24:22.113Z,6.10
2019-03-06T16:26:53.075Z,6.80
2019-03-06T16:29:25.143Z,6.83
2019-03-06T16:31:54.828Z,7.30
2019-03-06T16:34:24.815Z,8.80
2019-03-06T16:36:55.600Z,7.37
2019-03-06T16:39:26.502Z,8.60
2019-03-06T16:41:56.445Z,7.70
2019-03-06T16:44:26.364Z,8.30
2019-03-06T16:46:56.168Z,10.60
2019-03-06T16:49:28.405Z,9.47
2019-03-06T16:52:08.784Z,11.33
2019-03-06T16:54:39.191Z,10.67
2019-03-06T16:57:08.865Z,10.67
2019-03-06T16:59:41.745Z,11.03
2019-03-06T17:02:12.035Z,11.67
2019-03-06T17:04:52.052Z,9.90
2019-03-06T17:07:22.049Z,10.50
2019-03-06T17:09:53.872Z,11.03
2019-03-06T17:12:23.812Z,11.07
2019-03-06T17:15:00.351Z,9.33
2019-03-06T17:17:30.517Z,9.97
2019-03-06T17:20:01.106Z,10.37
2019-03-06T17:22:30.830Z,10.67
2019-03-06T17:25:03.307Z,10.50
2019-03-06T17:27:36.268Z,9.83
2019-03-06T17:30:09.609Z,10.13
2019-03-06T17:32:50.420Z,10.97
2019-03-06T17:35:20.146Z,8.90
2019-03-06T17:37:50.054Z,9.20
2019-03-06T17:40:20.595Z,9.60
2019-03-06T17:42:51.786Z,9.77
2019-03-06T17:45:27.671Z,11.20
2019-03-06T17:47:59.497Z,9.40
2019-03-06T17:50:29.668Z,11.20
2019-03-06T17:53:00.661Z,10.80
2019-03-06T17:55:31.268Z,12.77
2019-03-06T17:58:01.154Z,13.37
2019-03-06T18:00:39.938Z,10.13
2019-03-06T18:03:11.241Z,9.60
2019-03-06T18:05:41.287Z,9.27
2019-03-06T18:08:12.069Z,8.23
2019-03-06T18:10:44.461Z,8.33
2019-03-06T18:13:15.588Z,7.83
2019-03-06T18:15:45.365Z,8.00
2019-03-06T18:18:15.627Z,7.97
2019-03-06T18:20:48.375Z,7.77
2019-03-06T18:23:31.971Z,6.60
2019-03-06T18:26:06.086Z,7.00
2019-03-06T18:28:36.885Z,7.07
2019-03-06T18:31:09.214Z,6.80
2019-03-06T18:33:38.818Z,6.27
2019-03-06T18:36:15.938Z,6.80
2019-03-06T18:38:45.595Z,6.10
2019-03-06T18:41:19.067Z,6.03
2019-03-06T18:43:49.794Z,6.30
2019-03-06T18:46:20.142Z,5.90
2019-03-06T18:48:50.875Z,5.53
2019-03-06T18:51:22.346Z,6.03
2019-03-06T18:53:57.753Z,5.17
2019-03-06T18:56:29.325Z,4.33
2019-03-06T18:59:00.587Z,4.53
2019-03-06T19:01:32.807Z,3.80
2019-03-06T19:04:04.056Z,4.37
2019-03-06T19:06:33.893Z,4.00
2019-03-06T19:09:06.953Z,4.23
2019-03-06T19:11:36.682Z,3.97
2019-03-06T19:14:06.893Z,3.73
2019-03-06T19:16:37.775Z,3.97
2019-03-06T19:19:09.552Z,3.77
2019-03-06T19:21:40.153Z,3.73
2019-03-06T19:24:11.438Z,3.70
2019-03-06T19:26:43.227Z,3.40
2019-03-06T19:29:13.354Z,3.10
2019-03-06T19:31:43.099Z,2.93
2019-03-06T19:34:13.307Z,3.10
2019-03-06T19:36:42.994Z,3.33
2019-03-06T19:39:12.693Z,3.27
2019-03-06T19:41:42.431Z,3.67
2019-03-06T19:44:12.072Z,3.63
2019-03-06T19:46:43.003Z,3.10
2019-03-06T19:49:17.418Z,3.33
2019-03-06T19:51:51.504Z,3.07
2019-03-06T19:54:20.724Z,3.53
2019-03-06T19:56:55.038Z,3.17
2019-03-06T19:59:24.992Z,3.13
2019-03-06T20:01:54.679Z,3.33
2019-03-06T20:04:25.123Z,3.27
2019-03-06T20:06:58.213Z,3.83
2019-03-06T20:09:30.882Z,2.63
2019-03-06T20:12:01.794Z,2.57
2019-03-06T20:14:33.556Z,2.93
2019-03-06T20:17:03.401Z,2.80
2019-03-06T20:19:34.488Z,3.00
2019-03-06T20:22:05.961Z,2.83
2019-03-06T20:24:38.162Z,3.70
2019-03-06T20:27:11.076Z,3.87
2019-03-06T20:29:41.124Z,3.23
2019-03-06T20:32:11.197Z,3.57
2019-03-06T20:34:41.009Z,3.43
2019-03-06T20:37:11.955Z,3.43
2019-03-06T20:39:42.714Z,3.30
2019-03-06T20:42:12.623Z,3.30
2019-03-06T20:44:42.719Z,3.67
2019-03-06T20:47:12.684Z,4.33
2019-03-06T20:49:42.350Z,4.20
2019-03-06T20:52:12.051Z,4.73
2019-03-06T20:54:41.727Z,3.93
2019-03-06T20:57:11.433Z,4.00
2019-03-06T20:59:42.611Z,3.30
2019-03-06T21:02:14.215Z,3.70
2019-03-06T21:04:44.856Z,4.10
2019-03-06T21:07:14.532Z,5.63
2019-03-06T21:09:44.122Z,4.77
2019-03-06T21:12:13.783Z,7.20
2019-03-06T21:14:43.405Z,5.53
2019-03-06T21:17:13.138Z,5.73
2019-03-06T21:19:42.843Z,5.00
2019-03-06T21:22:12.574Z,4.30
2019-03-06T21:24:42.191Z,6.63
2019-03-06T21:27:11.849Z,8.30
2019-03-06T21:29:42.472Z,6.80
2019-03-06T21:32:12.625Z,7.33
2019-03-06T21:34:42.351Z,4.27
2019-03-06T21:37:11.999Z,3.53
2019-03-06T21:39:41.616Z,2.80
2019-03-06T21:42:12.869Z,3.13
2019-03-06T21:44:42.483Z,2.97
2019-03-06T21:47:12.332Z,3.40
2019-03-06T21:49:42.251Z,2.50
2019-03-06T21:52:11.990Z,3.10
2019-03-06T21:54:41.719Z,3.33
2019-03-06T21:57:11.307Z,3.10
2019-03-06T21:59:41.082Z,3.00
2019-03-06T22:02:10.756Z,3.30
2019-03-06T22:04:41.214Z,3.20
2019-03-06T22:07:10.905Z,2.77
2019-03-06T22:09:40.647Z,3.47
2019-03-06T22:12:10.278Z,3.00
2019-03-06T22:14:39.948Z,3.60
2019-03-06T22:17:10.007Z,3.47
2019-03-06T22:19:39.918Z,2.87
2019-03-06T22:22:09.789Z,3.07
2019-03-06T22:24:39.428Z,3.50
2019-03-06T22:27:09.035Z,3.17
2019-03-06T22:29:38.687Z,2.90
2019-03-06T22:32:08.733Z,3.20
2019-03-06T22:34:38.448Z,2.90
2019-03-06T22:37:08.482Z,3.10
2019-03-06T22:39:38.125Z,3.00
2019-03-06T22:42:07.883Z,3.23
2019-03-06T22:44:37.488Z,3.30
2019-03-06T22:47:07.570Z,2.90
2019-03-06T22:49:37.434Z,3.40
2019-03-06T22:52:07.113Z,3.80
2019-03-06T22:54:36.837Z,3.67
2019-03-06T22:57:06.518Z,3.30
2019-03-06T22:59:36.152Z,3.07
2019-03-06T23:02:05.910Z,3.33
2019-03-06T23:04:35.500Z,3.00
2019-03-06T23:07:05.145Z,3.07
2019-03-06T23:09:34.739Z,3.60
2019-03-06T23:12:04.451Z,3.83
2019-03-06T23:14:34.489Z,3.50
2019-03-06T23:17:04.086Z,2.70
2019-03-06T23:19:33.719Z,3.47
2019-03-06T23:22:03.321Z,3.30
2019-03-06T23:24:32.947Z,3.47
2019-03-06T23:27:02.573Z,3.30
2019-03-06T23:29:32.592Z,2.83
2019-03-06T23:32:02.253Z,3.17
2019-03-06T23:34:31.818Z,3.63
2019-03-06T23:37:01.441Z,3.50
2019-03-06T23:39:31.089Z,3.23
2019-03-06T23:42:00.953Z,3.47
2019-03-06T23:44:30.614Z,3.50
2019-03-06T23:47:00.193Z,3.63
2019-03-06T23:49:31.515Z,3.40
2019-03-06T23:52:15.800Z,3.40
2019-03-06T23:54:45.480Z,3.47
2019-03-06T23:57:15.083Z,3.77
2019-03-06T23:59:44.669Z,3.50
